Decoded Metar for KSPW (SPENCER in IA, USA) (IATA:SPW) | Meteo·Mobile Aviation Weather
aviador You're here:

KSPW Decoded Metar

SPENCER in IA, USA
Report Time2020-02-22 21:53:00
UTC Time2020-02-22 22:26:31
Flight Rules vfr VFR
Wind200° at 07 kt
W.Decomp.*RWY 18: 6.8 kt HW 1.8 kt RCW
RWY 12: 1.8 kt HW 6.8 kt RCW
Visibility9999 m
Phenomena:N/A
Clouds:N/A
Expected CloudBase > 1,200 ft AGL from Temp-Dew spread
CeilingNone
Temp06°C (ISA -6)
Dew Point03°C (81% RH)
AAT2.0°C
QNH1012 hPa
Density Alt699 ft
Elevation1,322 ft
Report Wrong Elevation
Raw Report
KSPW 222153Z AUTO 20007KT 10SM CLR 06/03 A2988 RMK AO2 SLP129
T00610028=

Extra information for KSPW:More info

Metar Taf Metar & Taf Last 4 Metars F.Rules Stats Wind Profile Meteogram Temp Stats Airport Information Weather charts Add Link Nearby VenuesMetar ALERT Operation Metar Decoded Social comments

AIRNAV info for KSPW